Time;durP1;ratioP1;P1;durP2;ratioP2;P2;SDS_P1;SDS_P2;PMS_P1;PMS_P2;Temp;Humidity;BMP_temperature;BMP_pressure;BME280_temperature;BME280_humidity;BME280_pressure;Samples;Min_cycle;Max_cycle;Signal;HPM_P1;HPM_P2
2021/09/03 00:00:05;;;;;;;8.10;7.20;;;18.70;74.00;;;;;;5003414;28;20210;-89
2021/09/03 00:02:31;;;;;;;8.15;7.43;;;18.70;74.00;;;;;;5002452;28;20482;-89
2021/09/03 00:04:56;;;;;;;9.02;7.05;;;18.80;73.60;;;;;;5001338;28;20225;-88
2021/09/03 00:07:22;;;;;;;8.77;7.70;;;18.80;73.00;;;;;;5001412;28;20193;-88
2021/09/03 00:09:48;;;;;;;7.88;7.18;;;18.60;73.70;;;;;;4995322;28;20209;-89
2021/09/03 00:12:14;;;;;;;8.18;7.38;;;18.40;74.60;;;;;;5003035;28;20198;-89
2021/09/03 00:14:40;;;;;;;8.00;7.30;;;18.10;75.80;;;;;;5002365;28;20253;-89
2021/09/03 00:17:06;;;;;;;7.50;6.80;;;17.90;76.60;;;;;;4999963;28;20225;-88
2021/09/03 00:19:32;;;;;;;8.18;7.38;;;17.80;76.80;;;;;;5003679;28;20207;-89
2021/09/03 00:21:58;;;;;;;8.50;7.37;;;17.80;77.00;;;;;;5005845;28;20187;-88
2021/09/03 00:24:24;;;;;;;8.70;7.53;;;17.70;77.60;;;;;;5006305;28;20201;-88
2021/09/03 00:26:50;;;;;;;7.55;6.95;;;17.70;77.30;;;;;;5006049;28;20189;-88
2021/09/03 00:29:16;;;;;;;10.27;7.63;;;17.70;77.00;;;;;;5003641;28;20197;-89
2021/09/03 00:31:42;;;;;;;9.03;7.27;;;17.70;77.10;;;;;;5004807;28;20204;-89
2021/09/03 00:34:08;;;;;;;7.32;6.75;;;17.70;76.90;;;;;;5005933;28;20232;-89
2021/09/03 00:36:34;;;;;;;7.47;6.67;;;17.80;76.80;;;;;;5007511;28;20207;-88
2021/09/03 00:39:00;;;;;;;8.90;7.32;;;17.90;76.20;;;;;;5004310;28;20196;-88
2021/09/03 00:41:25;;;;;;;8.48;7.03;;;17.80;75.80;;;;;;5003869;28;20199;-88
2021/09/03 00:43:51;;;;;;;8.13;7.38;;;17.70;76.50;;;;;;5020081;28;20213;-88
2021/09/03 00:46:17;;;;;;;7.78;7.07;;;17.70;76.80;;;;;;5007269;28;20199;-89
2021/09/03 00:48:43;;;;;;;7.25;6.65;;;17.80;76.00;;;;;;5021557;28;20224;-89
2021/09/03 00:51:09;;;;;;;7.43;6.72;;;17.80;76.40;;;;;;5007596;28;20226;-89
2021/09/03 00:53:35;;;;;;;7.70;7.00;;;17.70;76.90;;;;;;4987527;28;20201;-88
2021/09/03 00:56:02;;;;;;;8.10;7.40;;;17.60;77.00;;;;;;5004737;28;20213;-89
2021/09/03 00:58:28;;;;;;;7.80;7.00;;;17.60;76.90;;;;;;5008081;28;20728;-89
2021/09/03 01:00:54;;;;;;;7.60;7.00;;;17.80;76.50;;;;;;5017137;28;20196;-88
2021/09/03 01:03:19;;;;;;;8.73;7.93;;;17.80;76.10;;;;;;5004066;28;20204;-89
2021/09/03 01:05:46;;;;;;;7.82;7.03;;;17.80;75.80;;;;;;5004263;28;20205;-89
2021/09/03 01:08:12;;;;;;;7.63;6.85;;;18.00;75.00;;;;;;5004547;28;20223;-89
2021/09/03 01:10:38;;;;;;;7.82;6.30;;;17.90;75.30;;;;;;5004527;28;20221;-88
2021/09/03 01:13:05;;;;;;;8.07;7.38;;;17.80;75.90;;;;;;5011792;28;20208;-89
2021/09/03 01:15:31;;;;;;;7.30;6.70;;;17.80;75.70;;;;;;5005840;28;20217;-89
2021/09/03 01:17:57;;;;;;;7.97;6.80;;;17.80;75.10;;;;;;5014764;28;20219;-89
2021/09/03 01:20:22;;;;;;;7.47;6.55;;;17.80;75.60;;;;;;5004943;28;20196;-89
2021/09/03 01:22:48;;;;;;;7.50;6.80;;;17.80;75.70;;;;;;5002852;28;20265;-89
2021/09/03 01:25:17;;;;;;;7.22;6.63;;;17.70;75.90;;;;;;5004851;28;20300;-88
2021/09/03 01:27:43;;;;;;;7.80;7.03;;;17.70;75.80;;;;;;5005079;28;20250;-89
2021/09/03 01:30:15;;;;;;;7.60;6.87;;;17.60;75.70;;;;;;5003869;28;20200;-89
2021/09/03 01:32:42;;;;;;;8.05;6.93;;;17.50;76.30;;;;;;4997432;28;20268;-88
2021/09/03 01:35:08;;;;;;;7.30;6.47;;;17.40;77.20;;;;;;4991107;28;20701;-89
2021/09/03 01:37:34;;;;;;;7.10;6.40;;;17.30;76.90;;;;;;5005315;28;20247;-89
2021/09/03 01:40:00;;;;;;;7.37;6.67;;;17.40;77.10;;;;;;5003875;28;20208;-89
2021/09/03 01:42:27;;;;;;;7.60;6.90;;;17.40;76.70;;;;;;5003561;28;20186;-89
2021/09/03 01:44:52;;;;;;;7.63;6.93;;;17.50;76.10;;;;;;5005534;28;20223;-89
2021/09/03 01:47:18;;;;;;;8.38;7.57;;;17.40;76.00;;;;;;5003165;28;20204;-88
2021/09/03 01:49:44;;;;;;;7.68;7.00;;;17.50;76.10;;;;;;4997156;28;20265;-89
2021/09/03 01:52:10;;;;;;;7.53;6.83;;;17.40;76.10;;;;;;5004043;28;20256;-89
2021/09/03 01:54:36;;;;;;;8.20;7.43;;;17.30;77.70;;;;;;5004543;28;20295;-89
2021/09/03 01:57:01;;;;;;;6.93;6.27;;;17.20;77.20;;;;;;5004789;28;20243;-89
2021/09/03 01:59:27;;;;;;;7.07;6.47;;;17.20;77.00;;;;;;5006384;28;20202;-89
2021/09/03 02:01:53;;;;;;;7.37;6.77;;;17.20;76.80;;;;;;4999537;28;20192;-88
2021/09/03 02:04:19;;;;;;;7.70;7.00;;;17.10;76.60;;;;;;5005362;28;20227;-88
2021/09/03 02:06:45;;;;;;;7.70;7.10;;;16.90;77.60;;;;;;5016736;28;20248;-88
2021/09/03 02:09:11;;;;;;;6.70;6.10;;;16.70;78.30;;;;;;5018044;28;20231;-89
2021/09/03 02:11:37;;;;;;;7.53;6.60;;;16.70;78.50;;;;;;5015812;28;20187;-88
2021/09/03 02:14:03;;;;;;;7.60;6.90;;;16.70;78.20;;;;;;5014318;28;20222;-88
2021/09/03 02:16:29;;;;;;;6.90;6.30;;;16.60;77.90;;;;;;5016447;28;20345;-88
2021/09/03 02:18:55;;;;;;;7.33;6.73;;;16.70;77.80;;;;;;5005376;28;20693;-89
2021/09/03 02:21:21;;;;;;;7.43;6.73;;;16.70;78.00;;;;;;5010146;28;20193;-88
2021/09/03 02:23:46;;;;;;;8.30;7.50;;;16.70;78.10;;;;;;5017015;28;20226;-88
2021/09/03 02:26:12;;;;;;;8.10;6.10;;;16.70;78.00;;;;;;5006410;28;20278;-88
2021/09/03 02:28:38;;;;;;;7.57;6.87;;;16.60;78.10;;;;;;5005058;28;20198;-89
2021/09/03 02:31:04;;;;;;;7.40;6.70;;;16.60;77.80;;;;;;5006167;28;20248;-89
2021/09/03 02:33:30;;;;;;;7.63;6.93;;;16.50;78.40;;;;;;5014053;28;20197;-89
2021/09/03 02:35:55;;;;;;;7.63;6.93;;;16.50;78.40;;;;;;5016837;28;20194;-88
2021/09/03 02:38:21;;;;;;;7.67;7.00;;;16.40;77.90;;;;;;5000369;28;20206;-88
2021/09/03 02:40:47;;;;;;;6.83;6.20;;;16.30;78.10;;;;;;5013394;28;20194;-88
2021/09/03 02:43:12;;;;;;;7.07;6.40;;;16.20;78.70;;;;;;5004259;28;20198;-88
2021/09/03 02:45:38;;;;;;;7.37;6.30;;;16.10;79.60;;;;;;4998731;28;20661;-89
2021/09/03 02:48:04;;;;;;;7.17;6.47;;;16.10;79.80;;;;;;4987982;28;20213;-88
2021/09/03 02:50:30;;;;;;;7.07;6.47;;;16.00;79.90;;;;;;5005151;28;20195;-88
2021/09/03 02:52:58;;;;;;;7.87;7.17;;;15.90;80.40;;;;;;5003888;28;20262;-89
2021/09/03 02:55:27;;;;;;;7.43;6.73;;;16.00;80.50;;;;;;5018316;28;20308;-88
2021/09/03 02:57:53;;;;;;;8.00;7.17;;;16.20;79.80;;;;;;5004161;28;20241;-88
2021/09/03 03:00:19;;;;;;;7.10;6.40;;;16.10;79.60;;;;;;5001791;28;20294;-88
2021/09/03 03:02:45;;;;;;;7.97;6.90;;;16.10;80.00;;;;;;5001982;28;20190;-89
2021/09/03 03:05:11;;;;;;;7.43;6.73;;;16.00;80.10;;;;;;5006034;28;20226;-88
2021/09/03 03:07:37;;;;;;;7.30;6.70;;;15.90;80.80;;;;;;5010466;28;20205;-88
2021/09/03 03:10:05;;;;;;;7.73;7.03;;;15.90;80.90;;;;;;5014965;28;22215;-88
2021/09/03 03:12:31;;;;;;;7.87;6.97;;;15.90;81.10;;;;;;5005817;28;20189;-88
2021/09/03 03:14:57;;;;;;;7.87;7.23;;;15.90;80.70;;;;;;5004312;28;20257;-87
2021/09/03 03:17:22;;;;;;;6.90;6.30;;;15.90;80.70;;;;;;5015544;28;20217;-89
2021/09/03 03:19:48;;;;;;;6.63;5.93;;;15.90;80.80;;;;;;5005824;28;20240;-89
2021/09/03 03:22:15;;;;;;;6.70;6.20;;;16.00;80.40;;;;;;5002584;28;20206;-88
2021/09/03 03:24:40;;;;;;;8.73;6.50;;;15.90;80.10;;;;;;5001522;28;20229;-89
2021/09/03 03:27:06;;;;;;;9.30;6.70;;;15.90;79.80;;;;;;5003307;28;20629;-89
2021/09/03 03:29:33;;;;;;;8.43;7.00;;;15.70;80.30;;;;;;5002061;28;20197;-88
2021/09/03 03:31:58;;;;;;;7.50;6.80;;;15.60;81.10;;;;;;5004254;28;20201;-88
2021/09/03 03:34:24;;;;;;;7.73;6.60;;;15.70;81.10;;;;;;4996925;28;20296;-89
2021/09/03 03:36:50;;;;;;;9.60;7.50;;;15.80;81.60;;;;;;4994059;28;20225;-88
2021/09/03 03:39:16;;;;;;;7.27;6.60;;;15.80;79.10;;;;;;4995722;28;20653;-88
2021/09/03 03:41:42;;;;;;;7.13;6.43;;;15.90;80.30;;;;;;4992331;28;20205;-89
2021/09/03 03:44:07;;;;;;;7.60;6.73;;;15.80;80.50;;;;;;4992227;28;20238;-89
2021/09/03 03:46:33;;;;;;;7.43;6.80;;;16.00;79.70;;;;;;4995639;28;20192;-89
2021/09/03 03:48:59;;;;;;;7.03;6.43;;;15.90;80.50;;;;;;4994759;28;20567;-89
2021/09/03 03:51:25;;;;;;;7.00;6.40;;;16.00;78.90;;;;;;4994028;28;20669;-88
2021/09/03 03:53:51;;;;;;;7.57;6.57;;;16.10;80.00;;;;;;5000009;28;20224;-89
2021/09/03 03:56:17;;;;;;;6.73;6.13;;;16.20;78.90;;;;;;4999709;28;20201;-89
2021/09/03 03:58:43;;;;;;;7.47;6.67;;;16.30;78.70;;;;;;4998708;28;20232;-88
2021/09/03 04:01:09;;;;;;;9.07;7.00;;;16.30;77.10;;;;;;5005080;28;20225;-88
2021/09/03 04:03:35;;;;;;;8.23;6.67;;;16.00;78.20;;;;;;5010842;28;20194;-88
2021/09/03 04:06:00;;;;;;;8.93;7.57;;;16.00;78.70;;;;;;5008062;28;20257;-89
2021/09/03 04:08:26;;;;;;;7.23;6.60;;;15.80;79.10;;;;;;5000601;28;20197;-90
2021/09/03 04:10:52;;;;;;;7.30;6.53;;;15.80;80.10;;;;;;4999139;28;20198;-90
2021/09/03 04:13:19;;;;;;;8.13;6.37;;;16.00;79.60;;;;;;4998655;28;20292;-88
2021/09/03 04:15:45;;;;;;;7.57;6.83;;;16.00;78.60;;;;;;4999223;28;20194;-89
2021/09/03 04:18:12;;;;;;;8.67;6.70;;;16.10;76.10;;;;;;4997166;28;20219;-89
2021/09/03 04:20:37;;;;;;;7.33;6.63;;;15.80;78.20;;;;;;4997490;28;20638;-89
2021/09/03 04:23:04;;;;;;;7.27;6.40;;;15.80;77.10;;;;;;4997712;28;20210;-89
2021/09/03 04:25:30;;;;;;;10.97;7.40;;;15.80;78.90;;;;;;4999806;28;20210;-89
2021/09/03 04:27:55;;;;;;;7.53;6.83;;;15.90;78.40;;;;;;4997712;28;20204;-89
2021/09/03 04:30:24;;;;;;;7.03;6.33;;;16.00;78.40;;;;;;5000509;28;20198;-89
2021/09/03 04:32:49;;;;;;;7.43;6.77;;;16.00;77.60;;;;;;5003781;28;20284;-88
2021/09/03 04:35:16;;;;;;;9.83;7.43;;;16.00;78.00;;;;;;4997925;28;20272;-88
2021/09/03 04:37:45;;;;;;;8.50;6.77;;;16.00;78.20;;;;;;5000670;28;20272;-89
2021/09/03 04:40:12;;;;;;;8.13;7.33;;;15.80;78.90;;;;;;5002769;28;20194;-88
2021/09/03 04:42:38;;;;;;;9.40;6.83;;;15.40;80.10;;;;;;5003982;28;20208;-88
2021/09/03 04:45:05;;;;;;;10.07;6.63;;;15.40;81.40;;;;;;5000362;28;20301;-89
2021/09/03 04:47:33;;;;;;;7.67;6.63;;;15.40;80.70;;;;;;4999470;28;20703;-90
2021/09/03 04:49:59;;;;;;;7.43;6.83;;;15.50;80.90;;;;;;4998288;28;20204;-90
2021/09/03 04:52:25;;;;;;;7.50;6.90;;;15.60;80.00;;;;;;5000172;28;20244;-90
2021/09/03 04:54:51;;;;;;;7.73;7.03;;;15.50;80.20;;;;;;4999730;28;20245;-90
2021/09/03 04:57:17;;;;;;;6.77;6.17;;;15.40;81.20;;;;;;4994859;28;20694;-90
2021/09/03 04:59:42;;;;;;;7.20;6.60;;;15.40;80.00;;;;;;4984213;28;20196;-90
2021/09/03 05:02:08;;;;;;;8.67;6.67;;;15.50;80.00;;;;;;4998326;28;20229;-89
2021/09/03 05:04:34;;;;;;;7.47;6.77;;;15.40;79.10;;;;;;4999456;28;20693;-91
2021/09/03 05:07:00;;;;;;;9.40;7.50;;;15.60;79.70;;;;;;4993752;28;20216;-89
2021/09/03 05:09:26;;;;;;;7.97;7.27;;;15.60;80.20;;;;;;5001777;28;20202;-89
2021/09/03 05:11:51;;;;;;;9.00;7.97;;;15.50;81.00;;;;;;5000630;28;20204;-88
2021/09/03 05:14:17;;;;;;;8.47;7.33;;;15.40;81.70;;;;;;5002978;28;20217;-88
2021/09/03 05:16:43;;;;;;;9.27;7.47;;;15.30;82.10;;;;;;4999460;28;21780;-88
2021/09/03 05:19:09;;;;;;;8.57;7.87;;;15.10;82.90;;;;;;5002675;28;20197;-89
2021/09/03 05:21:35;;;;;;;9.77;8.73;;;15.10;83.50;;;;;;5003416;28;20200;-89
2021/09/03 05:24:01;;;;;;;10.03;8.77;;;14.90;84.60;;;;;;5004262;28;20210;-88
2021/09/03 05:26:26;;;;;;;8.87;8.07;;;14.70;85.90;;;;;;5005302;28;20191;-88
2021/09/03 05:28:52;;;;;;;9.87;7.90;;;14.60;86.40;;;;;;5003942;28;20199;-89
2021/09/03 05:31:18;;;;;;;11.30;9.73;;;14.60;86.50;;;;;;5003844;28;20206;-88
2021/09/03 05:33:44;;;;;;;10.27;9.10;;;14.60;86.50;;;;;;5009824;28;20210;-89
2021/09/03 05:36:10;;;;;;;12.53;8.93;;;14.60;86.80;;;;;;5007215;28;20218;-89
2021/09/03 05:38:35;;;;;;;10.57;8.10;;;14.80;86.70;;;;;;5005078;28;20294;-89
2021/09/03 05:41:02;;;;;;;9.30;8.50;;;15.00;86.20;;;;;;5011965;28;20262;-89
2021/09/03 05:43:28;;;;;;;9.50;8.47;;;15.10;85.00;;;;;;5003714;28;20280;-88
2021/09/03 05:45:54;;;;;;;9.20;8.10;;;15.30;84.30;;;;;;5020313;28;20219;-89
2021/09/03 05:48:20;;;;;;;9.10;8.13;;;15.40;84.50;;;;;;4988533;28;20201;-89
2021/09/03 05:50:46;;;;;;;9.50;8.20;;;15.70;83.60;;;;;;5001499;28;20206;-89
2021/09/03 05:53:12;;;;;;;11.73;8.77;;;15.70;82.40;;;;;;5004070;28;20200;-89
2021/09/03 05:55:37;;;;;;;9.77;8.77;;;15.70;82.40;;;;;;5003426;28;20217;-89
2021/09/03 05:58:03;;;;;;;8.37;7.50;;;15.70;82.80;;;;;;5003969;28;20568;-90
2021/09/03 06:00:29;;;;;;;8.70;7.77;;;15.60;82.80;;;;;;5002308;28;20198;-89
2021/09/03 06:02:55;;;;;;;9.23;8.00;;;15.70;83.00;;;;;;5003266;28;20196;-89
2021/09/03 06:05:21;;;;;;;8.93;8.03;;;15.80;82.20;;;;;;5000578;28;20225;-89
2021/09/03 06:07:47;;;;;;;8.67;7.97;;;15.70;82.30;;;;;;5002996;28;20192;-90
2021/09/03 06:10:13;;;;;;;9.33;8.43;;;15.70;82.90;;;;;;5004678;28;20213;-89
2021/09/03 06:12:39;;;;;;;9.40;8.40;;;15.70;83.10;;;;;;5005088;28;20191;-89
2021/09/03 06:15:06;;;;;;;9.43;8.53;;;15.70;83.40;;;;;;5004202;28;20319;-88
2021/09/03 06:17:32;;;;;;;9.20;8.30;;;15.60;83.90;;;;;;5001997;28;20323;-89
2021/09/03 06:19:57;;;;;;;11.80;8.37;;;15.50;84.50;;;;;;5008414;28;20185;-89
2021/09/03 06:22:24;;;;;;;10.20;9.10;;;15.40;85.10;;;;;;5002251;28;20202;-89
2021/09/03 06:24:50;;;;;;;9.00;8.20;;;15.40;84.90;;;;;;5001413;28;20207;-89
2021/09/03 06:27:16;;;;;;;13.47;9.27;;;15.40;85.30;;;;;;4988247;28;20204;-90
2021/09/03 06:29:42;;;;;;;9.33;8.50;;;15.50;85.40;;;;;;5004689;28;20256;-89
2021/09/03 06:32:11;;;;;;;9.63;8.63;;;15.60;85.50;;;;;;5016789;28;20188;-89
2021/09/03 06:34:40;;;;;;;10.00;9.10;;;15.50;85.70;;;;;;5001326;28;20215;-88
2021/09/03 06:37:06;;;;;;;10.37;9.27;;;15.60;85.90;;;;;;5003862;28;20236;-89
2021/09/03 06:39:33;;;;;;;10.20;9.20;;;15.70;85.80;;;;;;4999352;28;20195;-89
2021/09/03 06:42:00;;;;;;;9.83;8.83;;;15.70;85.90;;;;;;4988098;28;20194;-89
2021/09/03 06:44:26;;;;;;;9.37;8.30;;;15.80;85.70;;;;;;5008168;28;20332;-90
2021/09/03 06:46:51;;;;;;;9.70;8.80;;;15.90;85.50;;;;;;5003253;28;20198;-89
2021/09/03 06:49:17;;;;;;;9.37;8.17;;;15.90;85.00;;;;;;5004148;28;20194;-89
2021/09/03 06:51:43;;;;;;;10.10;9.20;;;16.00;85.00;;;;;;5018050;28;20195;-90
2021/09/03 06:54:09;;;;;;;11.03;8.90;;;16.10;84.70;;;;;;5002159;28;20220;-89
2021/09/03 06:56:35;;;;;;;9.70;8.70;;;16.20;84.10;;;;;;5004218;28;20208;-89
2021/09/03 06:59:02;;;;;;;8.97;8.17;;;16.30;83.70;;;;;;5002195;28;20200;-90
2021/09/03 07:01:28;;;;;;;11.97;9.07;;;16.40;83.10;;;;;;5004284;28;20178;-90
2021/09/03 07:03:54;;;;;;;10.17;8.07;;;16.60;82.50;;;;;;5003548;28;20215;-89
2021/09/03 07:06:20;;;;;;;9.23;8.33;;;16.70;82.40;;;;;;5001970;28;20249;-90
2021/09/03 07:08:46;;;;;;;8.87;7.97;;;16.80;81.80;;;;;;4998859;28;20283;-90
2021/09/03 07:11:12;;;;;;;9.03;8.20;;;16.80;81.50;;;;;;5001275;28;20263;-90
2021/09/03 07:13:38;;;;;;;9.43;8.53;;;17.00;80.60;;;;;;5004978;28;20193;-90
2021/09/03 07:16:04;;;;;;;9.17;8.27;;;17.00;80.40;;;;;;5003628;28;20198;-89
2021/09/03 07:18:31;;;;;;;8.77;8.00;;;17.10;80.40;;;;;;5016745;28;20306;-90
2021/09/03 07:20:57;;;;;;;8.97;8.17;;;17.20;80.80;;;;;;5003030;28;20193;-90
2021/09/03 07:23:23;;;;;;;9.97;8.23;;;17.40;79.40;;;;;;5002424;28;20193;-90
2021/09/03 07:25:49;;;;;;;15.70;8.83;;;17.50;79.30;;;;;;5002171;28;20250;-90
2021/09/03 07:28:15;;;;;;;12.03;8.97;;;17.70;78.20;;;;;;5006601;28;20197;-90
2021/09/03 07:30:42;;;;;;;9.30;8.37;;;17.70;77.80;;;;;;5009337;28;20206;-90
2021/09/03 07:33:08;;;;;;;8.87;8.07;;;17.90;77.70;;;;;;5009359;28;20217;-90
2021/09/03 07:35:33;;;;;;;9.37;8.57;;;18.00;77.00;;;;;;5005348;28;20208;-90
2021/09/03 07:37:59;;;;;;;8.57;7.70;;;18.10;77.10;;;;;;5002038;28;20243;-90
2021/09/03 07:40:29;;;;;;;9.13;8.23;;;18.30;74.60;;;;;;5008005;28;20181;-90
2021/09/03 07:42:55;;;;;;;8.93;7.97;;;18.40;72.50;;;;;;5005760;28;20194;-90
2021/09/03 07:45:21;;;;;;;8.80;7.90;;;18.60;72.10;;;;;;5023533;28;20747;-90
2021/09/03 07:47:48;;;;;;;8.55;7.68;;;18.70;72.20;;;;;;5008525;28;20243;-90
2021/09/03 07:50:17;;;;;;;8.15;7.45;;;18.80;70.90;;;;;;5008030;28;20267;-90
2021/09/03 07:52:44;;;;;;;8.43;7.63;;;18.80;70.60;;;;;;5009597;28;20632;-90
2021/09/03 07:55:10;;;;;;;8.55;7.75;;;18.90;69.40;;;;;;5024171;28;20555;-90
2021/09/03 07:57:36;;;;;;;8.38;7.55;;;19.00;69.60;;;;;;5005433;28;20235;-90
2021/09/03 08:00:03;;;;;;;8.15;7.30;;;19.00;69.40;;;;;;5009113;28;20189;-90
2021/09/03 08:02:28;;;;;;;8.80;8.00;;;19.00;69.80;;;;;;5006794;28;20188;-90
2021/09/03 08:04:54;;;;;;;8.30;7.50;;;19.20;70.00;;;;;;5009293;28;20229;-90
2021/09/03 08:07:22;;;;;;;8.82;7.97;;;19.20;68.50;;;;;;5006573;28;20190;-90
2021/09/03 08:09:47;;;;;;;8.65;7.50;;;19.40;68.40;;;;;;5006161;28;20183;-90
2021/09/03 08:12:13;;;;;;;10.70;8.15;;;19.50;68.80;;;;;;5010440;28;20605;-90
2021/09/03 08:14:39;;;;;;;8.85;8.05;;;19.40;68.10;;;;;;5008508;28;20235;-90
2021/09/03 08:17:05;;;;;;;8.30;7.60;;;19.60;68.00;;;;;;5013966;28;20237;-90
2021/09/03 08:19:31;;;;;;;9.70;7.93;;;19.80;68.10;;;;;;5006334;28;20205;-90
2021/09/03 08:21:57;;;;;;;8.20;7.53;;;19.90;67.20;;;;;;5003921;28;20198;-89
2021/09/03 08:24:23;;;;;;;9.38;8.38;;;20.00;67.00;;;;;;5009760;28;20225;-91
2021/09/03 08:26:49;;;;;;;9.32;8.35;;;20.10;67.30;;;;;;5009059;28;20198;-90
2021/09/03 08:29:14;;;;;;;8.52;7.82;;;20.10;66.80;;;;;;5008548;28;20197;-90
2021/09/03 08:31:40;;;;;;;8.90;7.38;;;20.10;66.70;;;;;;5007494;28;20190;-90
2021/09/03 08:34:07;;;;;;;9.38;8.52;;;20.20;66.10;;;;;;5006621;28;20244;-90
2021/09/03 08:36:33;;;;;;;9.52;7.78;;;20.40;65.30;;;;;;5008090;28;20280;-90
2021/09/03 08:38:59;;;;;;;7.65;6.95;;;20.50;64.80;;;;;;5006041;28;20241;-90
2021/09/03 08:41:25;;;;;;;8.93;8.13;;;20.70;66.00;;;;;;5004161;28;20191;-90
2021/09/03 08:43:59;;;;;;;8.70;7.88;;;20.70;65.70;;;;;;5003377;28;20226;-90
2021/09/03 08:46:26;;;;;;;8.55;7.55;;;20.80;65.10;;;;;;5006516;28;20193;-90
2021/09/03 08:48:52;;;;;;;8.88;7.97;;;20.80;64.00;;;;;;5005057;28;20198;-90
2021/09/03 08:51:18;;;;;;;8.57;7.82;;;20.80;65.20;;;;;;5006029;28;20190;-90
2021/09/03 08:53:45;;;;;;;9.63;8.23;;;20.90;63.30;;;;;;5005182;28;20217;-90
2021/09/03 08:56:12;;;;;;;8.68;7.88;;;20.90;64.10;;;;;;5003851;28;20250;-90
2021/09/03 08:58:39;;;;;;;8.90;8.00;;;21.00;63.60;;;;;;5015124;28;20289;-91
2021/09/03 09:01:13;;;;;;;8.45;7.65;;;21.20;62.20;;;;;;5007428;28;20186;-90
2021/09/03 09:03:44;;;;;;;8.43;7.65;;;21.40;62.10;;;;;;5005658;28;20194;-90
2021/09/03 09:06:18;;;;;;;8.52;7.55;;;21.50;60.80;;;;;;5000631;28;20188;-90
2021/09/03 09:08:44;;;;;;;8.55;7.70;;;21.70;61.60;;;;;;5002463;28;20195;-90
2021/09/03 09:11:13;;;;;;;8.52;7.68;;;21.80;61.30;;;;;;5006250;28;20395;-89
2021/09/03 09:13:41;;;;;;;8.45;7.68;;;21.80;60.60;;;;;;5002744;28;20201;-90
2021/09/03 09:16:12;;;;;;;7.90;7.20;;;22.00;59.90;;;;;;5003790;28;20688;-90
2021/09/03 09:18:58;;;;;;;8.80;8.10;;;22.20;60.00;;;;;;5004341;28;20278;-90
2021/09/03 09:21:40;;;;;;;8.85;7.47;;;22.30;59.70;;;;;;5004047;28;20197;-90
2021/09/03 09:24:13;;;;;;;9.43;8.00;;;22.60;60.50;;;;;;5004450;28;20237;-90
2021/09/03 09:26:50;;;;;;;9.82;8.82;;;22.70;58.80;;;;;;5002895;28;20681;-90
2021/09/03 09:29:19;;;;;;;7.68;6.97;;;22.70;57.20;;;;;;5008707;28;20215;-90
2021/09/03 09:31:47;;;;;;;9.32;8.50;;;22.80;57.60;;;;;;5003585;28;20217;-90
2021/09/03 09:34:16;;;;;;;9.18;8.35;;;23.00;55.90;;;;;;4999734;28;20706;-90
2021/09/03 09:36:42;;;;;;;11.38;7.82;;;23.00;56.80;;;;;;5001731;28;20221;-90
2021/09/03 09:39:08;;;;;;;8.80;8.05;;;23.10;57.80;;;;;;5002829;28;20179;-90
2021/09/03 09:41:34;;;;;;;9.15;8.23;;;22.90;56.60;;;;;;5005469;28;20190;-91
2021/09/03 09:44:00;;;;;;;8.70;7.90;;;23.00;57.10;;;;;;5004141;28;20214;-90
2021/09/03 09:46:28;;;;;;;7.90;7.20;;;23.10;56.80;;;;;;5007155;28;20237;-90
2021/09/03 09:48:57;;;;;;;9.07;8.27;;;23.40;55.70;;;;;;5008274;28;20198;-90
2021/09/03 09:51:35;;;;;;;8.77;7.75;;;23.30;55.10;;;;;;5007211;28;20182;-90
2021/09/03 09:54:19;;;;;;;9.35;7.70;;;23.30;55.50;;;;;;5011641;28;20195;-90
2021/09/03 09:56:46;;;;;;;8.85;8.05;;;23.60;55.00;;;;;;5013988;28;20197;-91
2021/09/03 09:59:13;;;;;;;8.48;7.68;;;23.70;54.70;;;;;;5006220;28;20203;-90
2021/09/03 10:01:40;;;;;;;7.45;6.80;;;23.60;55.40;;;;;;5001063;28;20209;-90
2021/09/03 10:04:17;;;;;;;8.70;7.82;;;23.90;55.20;;;;;;5001401;28;20220;-89
2021/09/03 10:06:45;;;;;;;8.90;8.20;;;24.30;54.10;;;;;;5000392;28;20182;-90
2021/09/03 10:09:13;;;;;;;8.15;7.45;;;24.40;53.80;;;;;;4999383;28;20265;-90
2021/09/03 10:11:42;;;;;;;8.43;7.72;;;24.60;52.40;;;;;;5003563;28;20289;-90
2021/09/03 10:14:09;;;;;;;8.75;7.88;;;24.70;52.30;;;;;;5005804;28;20193;-90
2021/09/03 10:16:35;;;;;;;7.72;7.13;;;24.60;51.50;;;;;;5010155;28;20190;-90
2021/09/03 10:19:05;;;;;;;8.43;7.75;;;24.70;51.30;;;;;;5013376;28;20234;-90
2021/09/03 10:21:36;;;;;;;8.48;7.78;;;24.80;50.20;;;;;;5011399;28;20205;-90
2021/09/03 10:24:14;;;;;;;8.23;7.50;;;25.00;50.40;;;;;;5015248;28;20276;-90
2021/09/03 10:26:46;;;;;;;8.45;7.75;;;25.30;48.80;;;;;;4997137;28;20224;-90
2021/09/03 10:29:18;;;;;;;8.63;7.93;;;25.50;47.80;;;;;;5008314;28;20194;-89
2021/09/03 10:32:06;;;;;;;8.27;7.68;;;25.70;47.90;;;;;;5011221;28;20353;-89
2021/09/03 10:34:42;;;;;;;7.85;7.15;;;25.80;47.00;;;;;;5015413;28;20301;-90
2021/09/03 10:37:14;;;;;;;8.40;7.60;;;25.90;47.20;;;;;;4997773;28;20218;-89
2021/09/03 10:39:43;;;;;;;8.45;7.75;;;26.10;48.50;;;;;;4995135;28;20205;-90
2021/09/03 10:42:09;;;;;;;8.50;7.68;;;25.80;46.70;;;;;;4994894;28;20182;-90
2021/09/03 10:45:08;;;;;;;9.27;8.38;;;25.90;46.60;;;;;;4998524;28;20598;-91
2021/09/03 10:47:46;;;;;;;8.65;7.93;;;26.40;46.70;;;;;;5001768;28;20190;-90
2021/09/03 10:50:30;;;;;;;8.38;7.68;;;26.20;47.00;;;;;;4998120;28;20252;-90
2021/09/03 10:53:05;;;;;;;8.18;7.47;;;26.10;47.60;;;;;;4994868;28;20186;-89
2021/09/03 10:55:49;;;;;;;7.72;7.03;;;26.10;46.80;;;;;;4997468;28;20266;-88
2021/09/03 10:58:33;;;;;;;8.85;8.02;;;26.20;46.70;;;;;;4993182;28;20209;-89
2021/09/03 11:01:11;;;;;;;8.88;8.07;;;26.50;46.70;;;;;;4993022;28;20186;-90
2021/09/03 11:03:41;;;;;;;8.02;7.40;;;26.40;46.00;;;;;;4995098;28;20196;-89
2021/09/03 11:06:06;;;;;;;9.23;8.13;;;26.30;47.00;;;;;;5013615;28;20190;-89
2021/09/03 11:08:43;;;;;;;8.52;7.82;;;26.40;46.80;;;;;;4996691;28;20248;-89
2021/09/03 11:11:24;;;;;;;9.07;8.27;;;26.40;46.20;;;;;;4997687;28;20221;-89
2021/09/03 11:13:54;;;;;;;8.93;8.23;;;26.10;46.70;;;;;;5000065;28;20214;-89
2021/09/03 11:16:42;;;;;;;8.95;8.25;;;26.70;45.70;;;;;;5003749;28;20825;-89
2021/09/03 11:19:14;;;;;;;8.18;7.47;;;27.10;45.30;;;;;;4999737;28;20210;-89
2021/09/03 11:22:04;;;;;;;9.73;8.02;;;27.60;43.60;;;;;;5010241;28;20867;-89
2021/09/03 11:24:43;;;;;;;8.40;7.60;;;27.80;43.30;;;;;;4997578;28;20226;-89
2021/09/03 11:27:12;;;;;;;9.05;8.25;;;28.10;41.80;;;;;;5000645;28;20265;-89
2021/09/03 11:29:45;;;;;;;8.65;7.95;;;28.00;41.80;;;;;;5000971;28;20301;-89
2021/09/03 11:32:26;;;;;;;8.70;8.00;;;27.90;41.70;;;;;;5015819;28;20555;-89
2021/09/03 11:35:05;;;;;;;9.23;8.25;;;27.50;42.50;;;;;;4990566;28;21216;-90
2021/09/03 11:37:32;;;;;;;8.40;7.65;;;27.50;43.50;;;;;;4999828;28;20260;-89
2021/09/03 11:40:03;;;;;;;8.57;7.88;;;27.90;41.90;;;;;;4997707;28;20205;-89
2021/09/03 11:42:32;;;;;;;8.35;7.65;;;27.90;42.30;;;;;;4998339;28;20190;-89
2021/09/03 11:45:19;;;;;;;8.70;8.00;;;28.30;41.00;;;;;;5000166;28;20226;-89
2021/09/03 11:47:50;;;;;;;9.10;8.23;;;28.30;42.60;;;;;;4999951;28;20221;-89
2021/09/03 11:50:19;;;;;;;9.65;8.45;;;28.60;41.20;;;;;;4997568;28;20209;-89
2021/09/03 11:52:45;;;;;;;8.60;7.90;;;28.50;40.40;;;;;;4998589;28;20186;-89
2021/09/03 11:55:16;;;;;;;8.60;7.75;;;28.50;40.50;;;;;;4995600;28;20206;-89
2021/09/03 11:58:04;;;;;;;8.20;7.60;;;28.50;41.30;;;;;;5013234;28;20293;-88
2021/09/03 12:00:54;;;;;;;8.52;7.72;;;28.40;39.80;;;;;;4994274;28;20195;-90
2021/09/03 12:03:30;;;;;;;8.25;7.53;;;28.70;40.00;;;;;;4997755;28;20201;-89
2021/09/03 12:05:57;;;;;;;8.35;7.55;;;29.00;38.70;;;;;;4995380;28;20189;-89
2021/09/03 12:08:23;;;;;;;17.38;8.25;;;29.30;38.00;;;;;;4995916;28;20214;-89
2021/09/03 12:11:01;;;;;;;10.18;9.23;;;29.40;38.80;;;;;;4994955;28;20207;-89
2021/09/03 12:13:29;;;;;;;10.23;7.50;;;29.70;38.40;;;;;;4990256;28;20250;-89
2021/09/03 12:15:58;;;;;;;7.50;6.90;;;29.80;37.70;;;;;;4998161;28;20258;-89
2021/09/03 12:18:35;;;;;;;9.23;8.30;;;30.00;36.70;;;;;;4997369;28;20210;-90
2021/09/03 12:21:10;;;;;;;8.07;7.35;;;30.00;37.60;;;;;;4993799;28;20190;-88
2021/09/03 12:23:58;;;;;;;8.43;7.82;;;30.10;37.60;;;;;;5001799;28;20186;-88
2021/09/03 12:26:48;;;;;;;8.23;7.38;;;30.20;35.70;;;;;;5000896;28;20187;-88
2021/09/03 12:29:16;;;;;;;9.23;8.32;;;30.40;35.80;;;;;;5000587;28;20187;-88
2021/09/03 12:31:59;;;;;;;8.15;7.38;;;30.00;36.40;;;;;;5001333;28;20178;-88
2021/09/03 12:34:27;;;;;;;9.18;8.07;;;30.00;36.50;;;;;;5002469;28;20234;-89
2021/09/03 12:37:01;;;;;;;8.20;7.47;;;30.10;35.60;;;;;;5001672;28;20186;-89
2021/09/03 12:39:27;;;;;;;9.30;8.43;;;30.40;36.10;;;;;;4997074;28;20252;-89
2021/09/03 12:41:54;;;;;;;8.80;8.18;;;30.40;35.90;;;;;;4991791;28;20969;-89
2021/09/03 12:44:28;;;;;;;9.05;8.27;;;30.60;35.80;;;;;;4995328;28;20225;-89
2021/09/03 12:46:56;;;;;;;8.45;7.65;;;30.80;35.90;;;;;;5000694;28;20198;-89
2021/09/03 12:49:27;;;;;;;9.65;8.45;;;30.90;35.20;;;;;;5000675;28;20198;-89